Time;durP1;ratioP1;P1;durP2;ratioP2;P2;SDS_P1;SDS_P2;PMS_P1;PMS_P2;Temp;Humidity;BMP_temperature;BMP_pressure;BME280_temperature;BME280_humidity;BME280_pressure;Samples;Min_cycle;Max_cycle;Signal;HPM_P1;HPM_P2
2022/07/26 00:11:47;;;;;;;35.90;19.27;;;;;;;21.81;72.08;98895.75;4928074;23;20032;-90
2022/07/26 00:21:09;;;;;;;33.17;17.95;;;;;;;21.43;72.22;98836.19;5495556;23;21268;-91
2022/07/26 00:27:06;;;;;;;35.13;18.33;;;;;;;21.74;72.37;98888.22;2430794;23;20374;-90
2022/07/26 00:36:38;;;;;;;44.85;19.73;;;;;;;21.65;72.64;98876.69;2018626;23;20264;-89
2022/07/26 00:39:36;;;;;;;33.55;18.63;;;;;;;21.61;72.53;98858.41;4978270;23;20066;-92
2022/07/26 00:48:39;;;;;;;32.03;18.67;;;;;;;21.05;73.24;98794.81;5110217;23;20066;-91
2022/07/26 00:58:38;;;;;;;34.22;19.02;;;;;;;21.29;73.57;98837.75;5048078;23;20110;-91
2022/07/26 01:10:20;;;;;;;33.70;19.30;;;;;;;21.55;73.29;98866.34;885702;23;20484;31
2022/07/26 01:12:46;;;;;;;40.55;20.10;;;;;;;21.24;73.29;98824.22;4895764;29;20041;-93
2022/07/26 01:16:37;;;;;;;;;;;;;;;;;;;;;
2022/07/26 01:32:23;;;;;;;38.85;20.65;;;;;;;21.62;73.30;98869.13;5216136;23;20086;31
2022/07/26 01:35:21;;;;;;;37.72;20.92;;;;;;;21.48;73.43;98847.69;4989127;23;19906;-91
2022/07/26 01:37:48;;;;;;;33.55;19.80;;;;;;;21.18;73.33;98811.91;4963185;23;20063;-91
2022/07/26 01:56:55;;;;;;;41.03;20.90;;;;;;;21.67;73.38;98904.91;5141608;23;20098;-93
2022/07/26 02:03:23;;;;;;;51.05;21.10;;;;;;;21.41;73.36;98853.25;4956992;28;20079;-91
2022/07/26 02:34:57;;;;;;;42.13;21.92;;;;;;;21.22;73.48;98820.25;6198747;23;20035;-90
2022/07/26 02:45:10;;;;;;;43.58;23.13;;;;;;;21.56;73.54;98870.75;6170969;23;20077;-92
2022/07/26 02:55:08;;;;;;;41.13;21.50;;;;;;;21.82;73.55;98908.50;6169743;23;20039;-90
2022/07/26 02:59:11;;;;;;;45.30;23.10;;;;;;;21.81;73.43;98918.00;6157667;23;20025;-93
2022/07/26 03:05:07;;;;;;;52.53;23.80;;;;;;;21.91;72.95;98933.91;6173556;22;20012;-91
2022/07/26 03:10:55;;;;;;;42.20;22.27;;;;;;;21.53;72.68;98869.56;6174648;23;20048;-94
2022/07/26 03:13:48;;;;;;;40.67;23.00;;;;;;;21.49;72.96;98854.84;6121068;23;20023;-90
2022/07/26 03:16:18;;;;;;;42.60;22.55;;;;;;;21.63;72.77;98890.22;6051475;23;20006;-90
2022/07/26 03:18:48;;;;;;;38.70;22.30;;;;;;;22.07;72.71;98947.41;6117019;23;20045;-90
2022/07/26 03:21:14;;;;;;;42.00;22.88;;;;;;;21.85;72.38;98896.53;6135199;23;20017;-90
2022/07/26 03:27:29;;;;;;;51.97;23.58;;;;;;;22.17;72.17;98963.34;6172738;23;20025;-92
2022/07/26 03:31:42;;;;;;;54.05;23.48;;;;;;;22.20;72.44;98959.75;6191412;23;20052;-92
2022/07/26 03:35:43;;;;;;;;;;;;;;;22.31;72.18;98964.53;6149782;23;20021;-90
2022/07/26 03:41:49;;;;;;;49.75;23.52;;;;;;;22.30;71.86;98960.94;6126345;23;20017;31
2022/07/26 03:50:10;;;;;;;;;;;;;;;22.41;71.43;98956.13;6166883;23;20089;-95
2022/07/26 03:52:35;;;;;;;;;;;;;;;22.44;71.70;98957.34;6169441;23;19907;-92
2022/07/26 03:59:23;;;;;;;47.30;24.88;;;;;;;22.48;71.33;98946.97;6174268;23;20197;-91
2022/07/26 04:12:53;;;;;;;48.42;23.85;;;;;;;22.44;70.79;98932.25;6173340;23;20029;-91
2022/07/26 04:15:29;;;;;;;61.63;25.73;;;;;;;22.65;71.16;98950.88;6106158;23;20033;-91
2022/07/26 04:18:35;;;;;;;50.30;25.00;;;;;;;22.63;70.89;98934.59;6166720;23;20043;-91
2022/07/26 04:32:56;;;;;;;54.30;22.90;;;;;;;22.42;69.23;98876.97;6137864;23;20062;-93
2022/07/26 04:35:48;;;;;;;67.03;23.63;;;;;;;22.97;69.61;98957.16;6155533;22;20271;-90
2022/07/26 04:46:45;;;;;;;84.30;26.00;;;;;;;22.84;69.02;98933.72;6176833;22;20025;-90
2022/07/26 04:58:52;;;;;;;124.20;29.23;;;;;;;23.18;68.62;98939.56;6201351;23;20016;-92
2022/07/26 05:01:22;;;;;;;53.10;24.55;;;;;;;22.92;68.34;98898.25;6124578;23;20025;-91
2022/07/26 05:04:38;;;;;;;70.07;26.00;;;;;;;23.27;68.53;98941.09;6206032;23;20019;-92
2022/07/26 05:10:57;;;;;;;60.83;25.08;;;;;;;23.44;67.46;98954.13;6188934;23;20027;-93
2022/07/26 05:16:44;;;;;;;57.75;25.60;;;;;;;23.66;67.30;98968.72;6167070;23;20013;-91
2022/07/26 05:19:20;;;;;;;52.63;25.07;;;;;;;23.49;67.58;98948.13;6138431;23;20024;-91
2022/07/26 05:22:44;;;;;;;64.53;24.58;;;;;;;23.76;67.19;98978.25;6165465;23;20104;-96
2022/07/26 05:25:11;;;;;;;50.95;24.95;;;;;;;23.52;67.02;98940.94;6147169;23;20024;-92
2022/07/26 05:29:09;;;;;;;56.45;27.65;;;;;;;23.87;66.82;98979.78;6224961;23;20035;-92
2022/07/26 05:32:21;;;;;;;61.53;25.15;;;;;;;23.95;66.05;98980.50;6158135;23;20032;-93
2022/07/26 05:35:25;;;;;;;63.17;26.83;;;;;;;23.81;66.40;98949.91;6149085;23;20041;-92
2022/07/26 05:37:55;;;;;;;222.80;95.35;;;;;;;23.98;66.21;98948.19;6175372;23;20025;-92
2022/07/26 05:41:03;;;;;;;62.20;27.20;;;;;;;23.66;65.59;98908.13;6180035;23;20040;-95
2022/07/26 05:43:30;;;;;;;104.53;27.92;;;;;;;23.98;66.20;98945.38;6138068;23;20009;-90
2022/07/26 05:47:06;;;;;;;85.78;27.77;;;;;;;24.27;65.83;98968.22;6185167;23;20040;-91
2022/07/26 05:49:32;;;;;;;116.90;32.35;;;;;;;24.03;65.48;98920.59;6131834;23;20033;-91
2022/07/26 05:57:49;;;;;;;95.32;33.47;;;;;;;24.11;64.77;98926.91;6234666;22;20363;-91
2022/07/26 06:00:16;;;;;;;;;;;;;;;24.43;64.70;98970.50;6163053;23;20045;-91
2022/07/26 06:07:12;;;;;;;74.93;28.08;;;;;;;24.46;64.24;98970.47;6203832;23;20040;-92
2022/07/26 06:10:35;;;;;;;93.40;31.30;;;;;;;24.47;64.61;98976.84;6100590;23;20025;-91
2022/07/26 06:13:06;;;;;;;117.95;31.60;;;;;;;24.14;64.89;98924.09;6159532;23;20022;-95
2022/07/26 06:15:57;;;;;;;69.22;27.33;;;;;;;24.66;64.46;98976.25;6061645;23;20026;-96
2022/07/26 06:47:12;;;;;;;123.65;35.97;;;;;;;25.21;60.71;98960.44;6179394;23;20040;-94
2022/07/26 07:01:17;;;;;;;270.42;87.85;;;;;;;25.46;60.12;98949.69;6148608;23;20024;-92
2022/07/26 07:27:39;;;;;;;66.85;26.73;;;;;;;25.78;57.31;98942.78;6102250;23;20065;-95
2022/07/26 11:34:44;;;;;;;200.63;34.53;;;;;;;30.34;43.69;98925.22;6154924;23;20037;-95
2022/07/26 12:19:18;;;;;;;1344.72;742.90;;;;;;;30.76;40.57;98893.84;6223721;23;20458;-93
2022/07/26 12:27:50;;;;;;;788.38;389.80;;;;;;;31.19;39.78;98866.81;6225175;23;20025;-93
2022/07/26 12:33:59;;;;;;;245.18;92.22;;;;;;;31.61;38.39;98895.38;6149053;23;20121;-94
2022/07/26 12:37:31;;;;;;;233.20;100.25;;;;;;;31.85;38.10;98898.41;6174388;23;20044;-95
2022/07/26 12:40:40;;;;;;;552.97;58.47;;;;;;;31.97;40.91;98902.41;6151595;23;20474;-92
2022/07/26 12:43:20;;;;;;;532.55;129.05;;;;;;;32.10;40.00;98903.03;6132313;23;20025;-92
2022/07/26 12:46:11;;;;;;;568.15;115.43;;;;;;;32.10;38.02;98891.72;6081608;23;20018;-93
2022/07/26 12:48:40;;;;;;;1960.25;819.00;;;;;;;31.55;36.83;98844.34;6058685;23;20022;-93
2022/07/26 12:51:34;;;;;;;513.10;234.48;;;;;;;31.53;37.81;98889.25;6130326;23;20021;-96
2022/07/26 12:54:05;;;;;;;105.15;34.83;;;;;;;31.38;39.30;98836.63;6047685;23;20440;-94
2022/07/26 12:56:36;;;;;;;118.60;30.58;;;;;;;31.34;36.79;98808.53;6027398;23;20120;-94
2022/07/26 12:59:09;;;;;;;264.15;53.25;;;;;;;31.75;36.45;98846.75;6002048;23;20027;-94
2022/07/26 13:01:36;;;;;;;211.45;36.40;;;;;;;31.66;35.66;98820.53;6047372;23;20042;-93
2022/07/26 13:04:11;;;;;;;152.40;58.97;;;;;;;31.70;34.49;98807.81;5998529;23;20437;-92
2022/07/26 13:06:38;;;;;;;149.38;35.95;;;;;;;32.24;37.62;98847.88;6065983;23;20133;-91
2022/07/26 13:09:35;;;;;;;;;;;;;;;32.61;37.82;98868.47;6021515;23;20019;-96
2022/07/26 13:15:13;;;;;;;183.63;39.80;;;;;;;31.49;36.85;98820.00;5932770;24;20048;-93
2022/07/26 13:17:40;;;;;;;180.90;49.35;;;;;;;31.17;38.07;98813.63;5931161;24;20020;-89
2022/07/26 13:20:16;;;;;;;120.05;30.05;;;;;;;31.05;37.98;98808.88;5932975;24;20151;-91
2022/07/26 13:23:10;;;;;;;103.70;30.70;;;;;;;31.21;38.45;98861.50;5939582;24;20020;-95
2022/07/26 13:26:02;;;;;;;467.33;56.70;;;;;;;30.56;40.45;98793.44;6089534;23;20454;-93
2022/07/26 13:28:29;;;;;;;116.78;32.83;;;;;;;30.39;38.98;98783.59;6115301;23;20072;-93
2022/07/26 13:30:56;;;;;;;294.88;44.58;;;;;;;30.63;41.17;98820.59;6109293;23;20014;-91
2022/07/26 13:33:23;;;;;;;209.60;36.38;;;;;;;30.50;41.51;98819.84;6085408;23;20017;-90
2022/07/26 13:35:49;;;;;;;229.63;36.65;;;;;;;30.58;41.04;98841.72;6090401;23;20125;-93
2022/07/26 13:38:17;;;;;;;;;;;;;;;30.67;40.24;98867.16;6089189;23;20559;-95
2022/07/26 13:40:44;;;;;;;127.97;33.97;;;;;;;30.39;38.73;98845.66;6087523;23;19942;-95
2022/07/26 13:43:10;;;;;;;;;;;;;;;30.32;41.75;98880.53;6088948;23;20386;-95
2022/07/26 13:49:35;;;;;;;436.80;197.43;;;;;;;29.02;47.25;98803.63;6136567;23;20049;-94
2022/07/26 13:52:48;;;;;;;175.93;65.97;;;;;;;29.11;47.82;98854.41;6045401;23;20265;-94
2022/07/26 13:55:24;;;;;;;141.20;35.40;;;;;;;28.80;47.98;98843.63;6083997;23;20025;-95
2022/07/26 13:58:08;;;;;;;366.17;137.38;;;;;;;28.57;47.25;98816.59;6105471;23;20046;-95
2022/07/26 14:00:53;;;;;;;112.35;39.08;;;;;;;28.32;47.08;98817.31;6124430;23;20025;-93
2022/07/26 14:08:18;;;;;;;131.68;45.15;;;;;;;28.66;46.20;98910.78;6103879;23;20040;-93
2022/07/26 14:11:09;;;;;;;69.57;24.97;;;;;;;28.59;46.67;98914.59;6086442;23;20026;-95
2022/07/26 14:17:00;;;;;;;135.23;40.30;;;;;;;28.49;47.88;98924.13;6106635;23;20009;-96
2022/07/26 14:21:02;;;;;;;126.07;32.60;;;;;;;27.90;48.10;98846.63;6158866;23;20039;-94
2022/07/26 14:30:13;;;;;;;202.20;35.25;;;;;;;28.15;50.33;98841.13;6166806;23;20026;-95
2022/07/26 14:32:47;;;;;;;120.38;30.08;;;;;;;28.10;50.71;98845.22;6059627;23;20026;-93
2022/07/26 14:46:20;;;;;;;427.88;53.58;;;;;;;28.36;52.46;98876.25;6153489;23;20504;-90
2022/07/26 14:52:05;;;;;;;116.47;25.70;;;;;;;28.87;52.51;98952.38;6154877;23;20014;-92
2022/07/26 14:58:43;;;;;;;94.43;23.77;;;;;;;28.06;51.05;98871.88;6160917;23;20021;-91
2022/07/26 15:01:10;;;;;;;132.65;26.95;;;;;;;28.32;52.67;98901.66;6114291;23;20433;-92
2022/07/26 15:03:37;;;;;;;75.72;22.35;;;;;;;28.38;49.35;98892.66;6160361;23;20403;-90
2022/07/26 15:07:02;;;;;;;77.70;27.33;;;;;;;28.84;48.76;98946.84;6135013;23;20017;-91
2022/07/26 15:09:31;;;;;;;65.72;21.40;;;;;;;28.58;49.08;98913.03;6134237;23;20447;-91
2022/07/26 15:11:59;;;;;;;81.78;22.33;;;;;;;28.67;48.74;98927.22;6110934;23;20019;-91
2022/07/26 15:15:13;;;;;;;58.53;21.38;;;;;;;28.63;49.03;98934.19;6142705;23;20021;-96
2022/07/26 15:17:42;;;;;;;51.83;20.05;;;;;;;28.26;49.12;98874.53;6112556;23;20021;-93
2022/07/26 15:20:36;;;;;;;97.72;25.13;;;;;;;28.81;49.32;98920.41;6133695;23;20036;-91
2022/07/26 15:23:08;;;;;;;79.43;24.92;;;;;;;29.01;48.94;98923.84;6111487;23;20171;-89
2022/07/26 15:25:59;;;;;;;103.18;27.98;;;;;;;29.20;48.36;98915.63;6134661;23;20051;-90
2022/07/26 15:28:38;;;;;;;76.80;26.70;;;;;;;29.10;48.66;98877.34;6134844;23;20017;-90
2022/07/26 15:31:05;;;;;;;62.38;21.20;;;;;;;29.25;48.05;98901.00;6135367;23;20435;-89
2022/07/26 15:33:34;;;;;;;48.17;20.88;;;;;;;29.18;47.53;98890.75;6158788;23;20363;-89
2022/07/26 15:36:26;;;;;;;54.50;19.10;;;;;;;29.41;46.80;98922.66;6160612;23;20021;-91
2022/07/26 15:39:13;;;;;;;47.28;19.63;;;;;;;29.29;47.13;98915.75;6137228;23;20359;-92
2022/07/26 15:41:44;;;;;;;53.63;19.25;;;;;;;28.78;46.87;98862.22;6162085;23;20440;-90
2022/07/26 15:44:10;;;;;;;56.08;20.17;;;;;;;28.84;47.45;98884.94;6161265;23;20351;-90
2022/07/26 15:47:01;;;;;;;;;;;;;;;28.94;47.65;98937.28;6138655;23;20455;-93
2022/07/26 15:49:55;;;;;;;61.05;20.83;;;;;;;28.74;48.80;98931.84;6162142;23;19912;-91
2022/07/26 15:56:07;;;;;;;65.47;23.60;;;;;;;28.62;51.67;98927.78;6161069;23;20537;-90
2022/07/26 15:58:33;;;;;;;85.88;23.58;;;;;;;28.34;50.44;98902.03;6161275;23;20076;-91
2022/07/26 16:00:59;;;;;;;;;;;;;;;28.47;51.25;98941.44;6112304;23;20071;-91
2022/07/26 16:03:27;;;;;;;61.33;21.38;;;;;;;28.36;49.98;98952.16;6136686;23;20339;-92
2022/07/26 16:05:55;;;;;;;50.90;21.13;;;;;;;28.34;51.26;98958.25;6185633;23;20028;-90
2022/07/26 16:08:23;;;;;;;64.47;22.27;;;;;;;28.30;52.53;98965.97;6111087;23;20067;-91
2022/07/26 16:11:37;;;;;;;61.08;21.20;;;;;;;27.96;50.76;98941.16;6167400;23;20017;-91
2022/07/26 16:14:10;;;;;;;77.40;20.65;;;;;;;27.96;51.43;98954.41;6159355;23;20025;-91
2022/07/26 16:16:36;;;;;;;68.95;22.05;;;;;;;28.05;50.35;98977.06;6160293;23;20027;-92
2022/07/26 16:19:02;;;;;;;69.75;22.45;;;;;;;27.97;50.13;98956.00;6136341;23;20024;-92
2022/07/26 16:21:28;;;;;;;68.50;22.08;;;;;;;27.87;49.94;98949.41;6137278;23;20383;-91
2022/07/26 16:23:55;;;;;;;74.97;21.77;;;;;;;28.04;49.83;98981.88;6135483;23;20100;-90
2022/07/26 16:26:35;;;;;;;48.45;20.45;;;;;;;27.95;50.79;98980.94;6136995;23;20111;-92
2022/07/26 16:29:05;;;;;;;77.95;22.75;;;;;;;27.87;50.95;98983.91;6184832;23;20123;-91
2022/07/26 16:31:31;;;;;;;52.80;21.15;;;;;;;27.35;50.28;98900.50;6134697;23;20167;-91
2022/07/26 16:33:58;;;;;;;57.13;20.58;;;;;;;27.79;49.95;98981.72;6158951;23;20021;-91
2022/07/26 16:36:31;;;;;;;68.18;20.73;;;;;;;27.46;50.65;98933.13;6157911;23;20025;-90
2022/07/26 16:39:10;;;;;;;57.78;20.40;;;;;;;27.70;50.46;98984.31;6159747;23;20017;-91
2022/07/26 16:41:36;;;;;;;51.88;20.05;;;;;;;27.37;50.62;98931.72;6159247;23;20017;-90
2022/07/26 16:44:02;;;;;;;;;;;;;;;27.59;51.22;98970.53;6185831;23;20020;-90
2022/07/26 16:46:54;;;;;;;70.10;22.60;;;;;;;27.50;51.25;98964.72;6160309;23;19944;-89
2022/07/26 16:49:23;;;;;;;97.20;22.95;;;;;;;26.90;51.39;98889.84;6112411;23;20463;-90
2022/07/26 16:52:15;;;;;;;54.30;20.35;;;;;;;27.32;51.43;98965.13;6161212;23;20021;-90
2022/07/26 16:54:49;;;;;;;53.70;21.40;;;;;;;27.29;51.96;98961.19;6187543;23;20017;-92
2022/07/26 16:58:15;;;;;;;35.67;17.77;;;;;;;27.18;51.39;98955.00;6138592;23;20016;-91
2022/07/26 17:00:41;;;;;;;66.22;19.77;;;;;;;26.70;51.85;98906.69;6139040;23;20052;-91
2022/07/26 17:03:20;;;;;;;50.22;18.80;;;;;;;26.96;51.76;98953.88;6150975;23;20017;-92
2022/07/26 17:05:46;;;;;;;34.85;19.27;;;;;;;26.87;51.75;98949.63;6158276;23;20076;-92
2022/07/26 17:08:34;;;;;;;37.75;18.80;;;;;;;26.63;51.91;98929.28;6138460;23;20048;-91
2022/07/26 17:14:31;;;;;;;67.03;21.70;;;;;;;26.72;52.33;98967.94;6038831;23;20455;-90
2022/07/26 17:16:58;;;;;;;;;;;;;;;26.88;52.36;98995.28;5991450;23;20452;-91
2022/07/26 17:19:37;;;;;;;48.75;18.90;;;;;;;26.65;52.56;98968.09;6038007;23;19984;-90
2022/07/26 17:22:03;;;;;;;45.10;18.95;;;;;;;26.66;52.85;98980.91;6012808;23;20026;-89
2022/07/26 17:24:29;;;;;;;;;;;;;;;26.73;53.11;99002.41;6014930;23;20554;-90
2022/07/26 17:27:25;;;;;;;;;;;;;;;26.70;53.33;99009.66;5991202;23;19917;-92
2022/07/26 17:30:19;;;;;;;31.23;18.52;;;;;;;26.64;53.35;99000.94;6014718;23;19945;-90
2022/07/26 17:32:54;;;;;;;34.97;18.00;;;;;;;26.58;53.79;99011.06;6015496;23;20026;-91
2022/07/26 17:35:20;;;;;;;43.58;19.58;;;;;;;26.53;54.36;99017.19;6015930;23;20019;-92
2022/07/26 17:37:55;;;;;;;56.28;18.88;;;;;;;26.40;54.59;99002.19;6016007;23;20019;-91
2022/07/26 17:40:25;;;;;;;52.50;19.80;;;;;;;26.01;55.86;98965.22;5991276;23;20102;-93
2022/07/26 17:42:59;;;;;;;46.60;21.05;;;;;;;26.08;56.83;98991.53;6037166;23;20015;-91
2022/07/26 17:45:26;;;;;;;54.35;21.85;;;;;;;26.24;56.76;99019.66;6013501;23;20019;-90
2022/07/26 17:47:59;;;;;;;43.58;21.52;;;;;;;26.09;56.77;99018.31;6014005;23;20019;-90
2022/07/26 17:50:25;;;;;;;56.60;20.85;;;;;;;25.96;57.16;98999.31;6057633;23;20482;-92
2022/07/26 17:52:55;;;;;;;51.50;20.67;;;;;;;25.93;57.45;99008.56;6111015;23;20017;-92
2022/07/26 17:55:25;;;;;;;51.80;20.15;;;;;;;25.42;56.58;98945.31;6161426;23;20079;-91
2022/07/26 17:57:52;;;;;;;58.58;20.70;;;;;;;25.95;57.96;99033.34;6161755;23;20036;-92
2022/07/26 18:00:39;;;;;;;35.65;19.30;;;;;;;25.66;57.30;98996.53;6103847;23;20025;-87
2022/07/26 18:03:05;;;;;;;48.53;20.38;;;;;;;25.57;57.69;98985.91;6053444;23;20028;-86
2022/07/26 18:05:32;;;;;;;47.88;20.58;;;;;;;25.25;58.23;98935.97;6098461;23;20034;-90
2022/07/26 18:08:00;;;;;;;44.88;19.77;;;;;;;25.43;58.55;98970.09;6051727;23;20053;-87
2022/07/26 18:10:27;;;;;;;45.13;21.70;;;;;;;25.58;58.67;99003.47;6052034;23;20025;-89
2022/07/26 18:12:54;;;;;;;49.50;21.00;;;;;;;25.54;58.85;99007.13;6102008;23;20018;-90
2022/07/26 18:15:31;;;;;;;47.72;21.42;;;;;;;25.65;58.18;99034.94;6075118;23;20112;-90
2022/07/26 18:17:57;;;;;;;55.38;21.35;;;;;;;25.60;57.95;99034.66;6099213;23;20416;-89
2022/07/26 18:20:23;;;;;;;73.93;21.63;;;;;;;25.27;58.22;98976.31;6051405;23;20039;-88
2022/07/26 18:22:54;;;;;;;53.42;20.70;;;;;;;25.12;59.35;98965.72;6122710;23;20053;-93
2022/07/26 18:25:20;;;;;;;50.42;22.55;;;;;;;25.32;59.58;98997.44;6049863;23;20479;-90
2022/07/26 18:27:48;;;;;;;46.47;20.92;;;;;;;25.12;58.11;98969.31;6099886;23;20014;-92
2022/07/26 18:30:14;;;;;;;79.93;23.63;;;;;;;25.25;58.85;98991.94;6132408;23;20021;-89
2022/07/26 18:32:44;;;;;;;61.40;22.38;;;;;;;25.13;59.02;98970.91;6133694;23;20076;-92
2022/07/26 18:35:31;;;;;;;43.83;21.63;;;;;;;25.19;58.45;98985.22;6158086;23;20097;-90
2022/07/26 18:38:23;;;;;;;71.90;23.00;;;;;;;25.41;59.27;99034.09;6043265;23;20058;-95
2022/07/26 18:41:03;;;;;;;71.15;23.52;;;;;;;25.03;59.02;98971.81;6019222;23;20025;-94
2022/07/26 18:44:38;;;;;;;72.60;23.48;;;;;;;25.35;59.38;99018.97;6066583;23;20018;-94
2022/07/26 18:47:08;;;;;;;67.30;23.13;;;;;;;24.90;59.19;98965.19;6044451;23;20074;-93
2022/07/26 18:49:41;;;;;;;62.75;25.05;;;;;;;25.03;59.44;99003.38;6068762;23;20042;-91
2022/07/26 18:52:10;;;;;;;75.50;24.33;;;;;;;25.03;59.44;99003.38;5969151;23;20466;-93
2022/07/26 18:54:42;;;;;;;59.80;23.65;;;;;;;24.96;59.32;98995.06;6015812;23;20027;-95
2022/07/26 18:57:35;;;;;;;53.20;22.27;;;;;;;25.20;59.48;99032.38;6018289;23;20066;-95
2022/07/26 19:00:35;;;;;;;60.60;24.80;;;;;;;24.96;59.59;99002.66;5994189;23;20153;-92
2022/07/26 19:03:03;;;;;;;50.95;22.33;;;;;;;24.74;59.28;98963.78;5960008;24;20027;-90
2022/07/26 19:05:30;;;;;;;57.20;23.35;;;;;;;25.00;59.28;99009.00;6007939;23;20030;-91
2022/07/26 19:07:57;;;;;;;66.80;22.55;;;;;;;25.12;59.92;99030.06;5961038;23;20022;-92
2022/07/26 19:14:04;;;;;;;44.72;22.98;;;;;;;24.63;59.41;98976.28;6117314;23;20513;-94
2022/07/26 19:20:28;;;;;;;53.63;22.77;;;;;;;25.01;60.10;99044.94;6200603;23;20056;-94
2022/07/26 19:27:37;;;;;;;65.78;31.13;;;;;;;24.94;60.58;99039.44;6180367;23;20021;-96
2022/07/26 19:37:00;;;;;;;123.38;61.42;;;;;;;24.14;61.31;98952.00;6107645;23;20080;-96
2022/07/26 19:43:04;;;;;;;83.93;31.50;;;;;;;24.22;61.65;98977.06;6185580;23;20029;-95
2022/07/26 19:46:02;;;;;;;117.18;50.92;;;;;;;24.63;62.42;99040.56;6114317;23;20052;-95
2022/07/26 19:52:55;;;;;;;79.35;33.92;;;;;;;24.52;62.26;99032.28;6081916;23;20179;31
2022/07/26 20:06:21;;;;;;;65.45;24.35;;;;;;;23.98;60.91;98928.63;6143177;23;20125;-94
2022/07/26 20:08:49;;;;;;;67.28;25.45;;;;;;;24.43;60.71;98992.84;6141907;23;20029;-95
2022/07/26 20:18:25;;;;;;;48.90;25.25;;;;;;;24.34;60.40;98968.19;6189554;23;20029;-94
2022/07/26 20:35:45;;;;;;;59.78;26.25;;;;;;;24.01;61.64;98931.38;6190575;23;20028;-93
2022/07/26 20:53:20;;;;;;;91.22;29.50;;;;;;;24.22;63.68;99016.19;6165265;23;20036;-94
2022/07/26 20:55:48;;;;;;;62.90;27.33;;;;;;;23.85;64.13;98964.63;6117359;23;20057;-94
2022/07/26 20:59:12;;;;;;;53.90;27.65;;;;;;;24.17;63.65;99030.56;6187255;23;20039;-95
2022/07/26 21:19:01;;;;;;;67.68;29.17;;;;;;;23.83;65.33;99031.22;6144747;23;20037;-94
2022/07/26 21:25:41;;;;;;;56.97;29.88;;;;;;;23.78;65.45;99029.69;6125058;23;20433;-96
2022/07/26 21:32:58;;;;;;;67.47;30.65;;;;;;;23.68;66.19;99036.91;6173568;23;20052;-94
2022/07/26 21:38:40;;;;;;;55.42;30.15;;;;;;;23.51;66.48;99023.84;6172955;23;20028;-95
2022/07/26 21:57:46;;;;;;;64.93;33.30;;;;;;;23.37;68.00;99055.38;6118836;23;20053;-95
2022/07/26 22:01:02;;;;;;;73.72;35.28;;;;;;;23.35;68.51;99054.22;6090849;23;20069;-94
2022/07/26 22:24:27;;;;;;;102.60;47.60;;;;;;;22.88;70.77;99040.41;6045603;22;2469344;31
2022/07/26 22:30:11;;;;;;;92.97;47.22;;;;;;;22.68;70.41;99009.41;6179184;23;20029;-94
2022/07/26 22:37:24;;;;;;;89.85;44.03;;;;;;;22.34;70.71;98964.50;6168772;22;20060;31
2022/07/26 22:39:50;;;;;;;97.07;50.20;;;;;;;22.16;70.83;98939.50;6086137;23;20086;-93
2022/07/26 22:52:06;;;;;;;83.05;39.13;;;;;;;22.27;70.79;98945.81;6166321;23;20025;-96
2022/07/26 22:55:38;;;;;;;74.90;36.78;;;;;;;22.90;70.08;99040.78;6108809;23;20032;-96
2022/07/26 22:58:57;;;;;;;79.00;37.85;;;;;;;22.96;69.95;99044.00;6134445;23;20486;-96
2022/07/26 23:01:24;;;;;;;75.30;37.95;;;;;;;22.66;69.60;98991.50;6108009;23;20534;-95
2022/07/26 23:04:28;;;;;;;73.55;37.75;;;;;;;22.59;69.78;98983.97;6077868;23;20103;-96
2022/07/26 23:10:12;;;;;;;65.60;36.67;;;;;;;22.86;69.37;99009.34;6101118;23;20057;-95
2022/07/26 23:23:15;;;;;;;75.88;35.95;;;;;;;22.72;68.77;98973.97;6140475;23;20124;-95
2022/07/26 23:30:11;;;;;;;83.93;36.65;;;;;;;23.19;69.06;99055.47;6156877;23;20033;-94
2022/07/26 23:36:53;;;;;;;75.50;37.25;;;;;;;23.13;69.31;99042.34;6116945;23;20025;-96
2022/07/26 23:43:25;;;;;;;93.35;37.60;;;;;;;22.43;69.81;98952.97;6197085;22;20029;-94
2022/07/26 23:49:31;;;;;;;98.55;39.20;;;;;;;22.45;69.96;98972.84;6132034;23;20372;-95
2022/07/26 23:56:26;;;;;;;72.97;37.20;;;;;;;22.67;70.50;99018.97;6163546;23;20194;-95
